sensor_id;sensor_type;location;lat;lon;timestamp;temperature;humidity
7002;DHT22;3541;53.230;10.518;2023-06-10T00:01:10;19.00;99.90
7002;DHT22;3541;53.230;10.518;2023-06-10T00:03:36;18.90;99.90
7002;DHT22;3541;53.230;10.518;2023-06-10T00:06:03;18.90;99.90
7002;DHT22;3541;53.230;10.518;2023-06-10T00:08:31;18.90;99.90
7002;DHT22;3541;53.230;10.518;2023-06-10T00:10:58;18.90;99.90
7002;DHT22;3541;53.230;10.518;2023-06-10T00:13:25;18.90;99.90
7002;DHT22;3541;53.230;10.518;2023-06-10T00:15:52;18.80;99.90
7002;DHT22;3541;53.230;10.518;2023-06-10T00:18:18;18.80;99.90
7002;DHT22;3541;53.230;10.518;2023-06-10T00:20:46;18.70;99.90
7002;DHT22;3541;53.230;10.518;2023-06-10T00:23:14;18.60;99.90
7002;DHT22;3541;53.230;10.518;2023-06-10T00:25:43;18.60;99.90
7002;DHT22;3541;53.230;10.518;2023-06-10T00:28:10;18.50;99.90
7002;DHT22;3541;53.230;10.518;2023-06-10T00:30:36;18.50;99.90
7002;DHT22;3541;53.230;10.518;2023-06-10T00:33:03;18.50;99.90
7002;DHT22;3541;53.230;10.518;2023-06-10T00:35:30;18.50;99.90
7002;DHT22;3541;53.230;10.518;2023-06-10T00:37:56;18.40;99.90
7002;DHT22;3541;53.230;10.518;2023-06-10T00:40:23;18.50;99.90
7002;DHT22;3541;53.230;10.518;2023-06-10T00:42:51;18.30;99.90
7002;DHT22;3541;53.230;10.518;2023-06-10T00:45:18;18.40;99.90
7002;DHT22;3541;53.230;10.518;2023-06-10T00:47:44;18.30;99.90
7002;DHT22;3541;53.230;10.518;2023-06-10T00:50:11;18.30;99.90
7002;DHT22;3541;53.230;10.518;2023-06-10T00:52:37;18.10;99.90
7002;DHT22;3541;53.230;10.518;2023-06-10T00:55:05;18.30;99.90
7002;DHT22;3541;53.230;10.518;2023-06-10T00:57:33;18.10;99.90
7002;DHT22;3541;53.230;10.518;2023-06-10T01:00:01;18.20;99.90
7002;DHT22;3541;53.230;10.518;2023-06-10T01:02:28;18.30;99.90
7002;DHT22;3541;53.230;10.518;2023-06-10T01:04:55;18.20;99.90
7002;DHT22;3541;53.230;10.518;2023-06-10T01:07:26;18.10;99.90
7002;DHT22;3541;53.230;10.518;2023-06-10T01:09:59;18.10;99.90
7002;DHT22;3541;53.230;10.518;2023-06-10T01:12:32;18.10;99.90
7002;DHT22;3541;53.230;10.518;2023-06-10T01:15:02;17.90;99.90
7002;DHT22;3541;53.230;10.518;2023-06-10T01:17:29;18.00;99.90
7002;DHT22;3541;53.230;10.518;2023-06-10T01:19:57;17.80;99.90
7002;DHT22;3541;53.230;10.518;2023-06-10T01:22:26;17.80;99.90
7002;DHT22;3541;53.230;10.518;2023-06-10T01:24:54;17.90;99.90
7002;DHT22;3541;53.230;10.518;2023-06-10T01:27:26;18.00;99.90
7002;DHT22;3541;53.230;10.518;2023-06-10T01:29:59;18.00;99.90
7002;DHT22;3541;53.230;10.518;2023-06-10T01:32:33;17.80;99.90
7002;DHT22;3541;53.230;10.518;2023-06-10T01:35:02;17.80;99.90
7002;DHT22;3541;53.230;10.518;2023-06-10T01:37:32;17.80;99.90
7002;DHT22;3541;53.230;10.518;2023-06-10T01:40:00;17.90;99.90
7002;DHT22;3541;53.230;10.518;2023-06-10T01:42:29;17.70;99.90
7002;DHT22;3541;53.230;10.518;2023-06-10T01:44:56;17.50;99.90
7002;DHT22;3541;53.230;10.518;2023-06-10T01:47:22;17.40;99.90
7002;DHT22;3541;53.230;10.518;2023-06-10T01:49:49;17.50;99.90
7002;DHT22;3541;53.230;10.518;2023-06-10T01:52:16;17.60;99.90
7002;DHT22;3541;53.230;10.518;2023-06-10T01:54:44;17.70;99.90
7002;DHT22;3541;53.230;10.518;2023-06-10T01:57:10;17.70;99.90
7002;DHT22;3541;53.230;10.518;2023-06-10T01:59:37;17.60;99.90
7002;DHT22;3541;53.230;10.518;2023-06-10T02:02:04;17.50;99.90
7002;DHT22;3541;53.230;10.518;2023-06-10T02:04:31;17.50;99.90
7002;DHT22;3541;53.230;10.518;2023-06-10T02:06:58;17.50;99.90
7002;DHT22;3541;53.230;10.518;2023-06-10T02:09:29;17.50;99.90
7002;DHT22;3541;53.230;10.518;2023-06-10T02:11:57;17.40;99.90
7002;DHT22;3541;53.230;10.518;2023-06-10T02:14:24;17.40;99.90
7002;DHT22;3541;53.230;10.518;2023-06-10T02:16:50;17.30;99.90
7002;DHT22;3541;53.230;10.518;2023-06-10T02:19:17;17.30;99.90
7002;DHT22;3541;53.230;10.518;2023-06-10T02:21:44;17.30;99.90
7002;DHT22;3541;53.230;10.518;2023-06-10T02:24:10;17.40;99.90
7002;DHT22;3541;53.230;10.518;2023-06-10T02:26:37;17.30;99.90
7002;DHT22;3541;53.230;10.518;2023-06-10T02:29:05;17.40;99.90
7002;DHT22;3541;53.230;10.518;2023-06-10T02:31:31;17.30;99.90
7002;DHT22;3541;53.230;10.518;2023-06-10T02:34:00;17.40;99.90
7002;DHT22;3541;53.230;10.518;2023-06-10T02:36:28;17.40;99.90
7002;DHT22;3541;53.230;10.518;2023-06-10T02:38:55;17.50;99.90
7002;DHT22;3541;53.230;10.518;2023-06-10T02:41:21;17.60;99.90
7002;DHT22;3541;53.230;10.518;2023-06-10T02:43:48;17.50;99.90
7002;DHT22;3541;53.230;10.518;2023-06-10T02:46:16;17.50;99.90
7002;DHT22;3541;53.230;10.518;2023-06-10T02:48:43;17.40;99.90
7002;DHT22;3541;53.230;10.518;2023-06-10T02:51:10;17.40;99.90
7002;DHT22;3541;53.230;10.518;2023-06-10T02:53:36;17.30;99.90
7002;DHT22;3541;53.230;10.518;2023-06-10T02:56:03;17.30;99.90
7002;DHT22;3541;53.230;10.518;2023-06-10T02:58:30;17.30;99.90
7002;DHT22;3541;53.230;10.518;2023-06-10T03:00:57;17.40;99.90
7002;DHT22;3541;53.230;10.518;2023-06-10T03:03:25;17.50;99.90
7002;DHT22;3541;53.230;10.518;2023-06-10T03:05:53;17.50;99.90
7002;DHT22;3541;53.230;10.518;2023-06-10T03:08:19;17.40;99.90
7002;DHT22;3541;53.230;10.518;2023-06-10T03:10:46;17.40;99.90
7002;DHT22;3541;53.230;10.518;2023-06-10T03:13:13;17.40;99.90
7002;DHT22;3541;53.230;10.518;2023-06-10T03:15:39;17.40;99.90
7002;DHT22;3541;53.230;10.518;2023-06-10T03:18:06;17.40;99.90
7002;DHT22;3541;53.230;10.518;2023-06-10T03:20:35;17.40;99.90
7002;DHT22;3541;53.230;10.518;2023-06-10T03:23:02;17.40;99.90
7002;DHT22;3541;53.230;10.518;2023-06-10T03:25:28;17.30;99.90
7002;DHT22;3541;53.230;10.518;2023-06-10T03:27:56;17.30;99.90
7002;DHT22;3541;53.230;10.518;2023-06-10T03:30:22;17.20;99.90
7002;DHT22;3541;53.230;10.518;2023-06-10T03:32:49;17.30;99.90
7002;DHT22;3541;53.230;10.518;2023-06-10T03:35:15;17.30;99.90
7002;DHT22;3541;53.230;10.518;2023-06-10T03:37:44;17.30;99.90
7002;DHT22;3541;53.230;10.518;2023-06-10T03:40:11;17.20;99.90
7002;DHT22;3541;53.230;10.518;2023-06-10T03:42:37;17.20;99.90
7002;DHT22;3541;53.230;10.518;2023-06-10T03:45:05;17.30;99.90
7002;DHT22;3541;53.230;10.518;2023-06-10T03:47:33;17.30;99.90
7002;DHT22;3541;53.230;10.518;2023-06-10T03:50:01;17.20;99.90
7002;DHT22;3541;53.230;10.518;2023-06-10T03:52:28;17.20;99.90
7002;DHT22;3541;53.230;10.518;2023-06-10T03:54:56;17.10;99.90
7002;DHT22;3541;53.230;10.518;2023-06-10T03:57:23;17.20;99.90
7002;DHT22;3541;53.230;10.518;2023-06-10T03:59:50;17.10;99.90
7002;DHT22;3541;53.230;10.518;2023-06-10T04:02:16;17.20;99.90
7002;DHT22;3541;53.230;10.518;2023-06-10T04:04:43;17.20;99.90
7002;DHT22;3541;53.230;10.518;2023-06-10T04:07:10;17.20;99.90
7002;DHT22;3541;53.230;10.518;2023-06-10T04:09:37;17.20;99.90
7002;DHT22;3541;53.230;10.518;2023-06-10T04:12:06;17.20;99.90
7002;DHT22;3541;53.230;10.518;2023-06-10T04:14:34;17.20;99.90
7002;DHT22;3541;53.230;10.518;2023-06-10T04:17:02;17.20;99.90
7002;DHT22;3541;53.230;10.518;2023-06-10T04:19:28;17.30;99.90
7002;DHT22;3541;53.230;10.518;2023-06-10T04:21:56;17.20;99.90
7002;DHT22;3541;53.230;10.518;2023-06-10T04:24:23;17.30;99.90
7002;DHT22;3541;53.230;10.518;2023-06-10T04:26:49;17.30;99.90
7002;DHT22;3541;53.230;10.518;2023-06-10T04:29:17;17.20;99.90
7002;DHT22;3541;53.230;10.518;2023-06-10T04:31:44;17.20;99.90
7002;DHT22;3541;53.230;10.518;2023-06-10T04:34:11;17.20;99.90
7002;DHT22;3541;53.230;10.518;2023-06-10T04:36:38;17.10;99.90
7002;DHT22;3541;53.230;10.518;2023-06-10T04:39:05;17.00;99.90
7002;DHT22;3541;53.230;10.518;2023-06-10T04:41:32;17.00;99.90
7002;DHT22;3541;53.230;10.518;2023-06-10T04:43:58;16.90;99.90
7002;DHT22;3541;53.230;10.518;2023-06-10T04:46:26;17.00;99.90
7002;DHT22;3541;53.230;10.518;2023-06-10T04:48:52;17.10;99.90
7002;DHT22;3541;53.230;10.518;2023-06-10T04:51:19;17.10;99.90
7002;DHT22;3541;53.230;10.518;2023-06-10T04:53:46;17.20;99.90
7002;DHT22;3541;53.230;10.518;2023-06-10T04:56:13;17.10;99.90
7002;DHT22;3541;53.230;10.518;2023-06-10T04:58:40;17.10;99.90
7002;DHT22;3541;53.230;10.518;2023-06-10T05:01:07;17.20;99.90
7002;DHT22;3541;53.230;10.518;2023-06-10T05:03:35;17.10;99.90
7002;DHT22;3541;53.230;10.518;2023-06-10T05:06:02;17.10;99.90
7002;DHT22;3541;53.230;10.518;2023-06-10T05:08:28;17.20;99.90
7002;DHT22;3541;53.230;10.518;2023-06-10T05:10:55;17.20;99.90
7002;DHT22;3541;53.230;10.518;2023-06-10T05:13:21;17.30;99.90
7002;DHT22;3541;53.230;10.518;2023-06-10T05:15:48;17.30;99.90
7002;DHT22;3541;53.230;10.518;2023-06-10T05:18:14;17.40;99.90
7002;DHT22;3541;53.230;10.518;2023-06-10T05:20:42;17.30;99.90
7002;DHT22;3541;53.230;10.518;2023-06-10T05:23:09;17.30;99.90
7002;DHT22;3541;53.230;10.518;2023-06-10T05:25:36;17.40;99.90
7002;DHT22;3541;53.230;10.518;2023-06-10T05:28:03;17.30;99.90
7002;DHT22;3541;53.230;10.518;2023-06-10T05:30:29;17.30;99.90
7002;DHT22;3541;53.230;10.518;2023-06-10T05:32:56;17.30;99.90
7002;DHT22;3541;53.230;10.518;2023-06-10T05:35:22;17.40;99.90
7002;DHT22;3541;53.230;10.518;2023-06-10T05:37:50;17.40;99.90
7002;DHT22;3541;53.230;10.518;2023-06-10T05:40:17;17.40;99.90
7002;DHT22;3541;53.230;10.518;2023-06-10T05:42:44;17.40;99.90
7002;DHT22;3541;53.230;10.518;2023-06-10T05:45:10;17.30;99.90
7002;DHT22;3541;53.230;10.518;2023-06-10T05:47:37;17.40;99.90
7002;DHT22;3541;53.230;10.518;2023-06-10T05:50:04;17.40;99.90
7002;DHT22;3541;53.230;10.518;2023-06-10T05:52:32;17.50;99.90
7002;DHT22;3541;53.230;10.518;2023-06-10T05:55:00;17.40;99.90
7002;DHT22;3541;53.230;10.518;2023-06-10T05:57:27;17.40;99.90
7002;DHT22;3541;53.230;10.518;2023-06-10T05:59:53;17.40;99.90
7002;DHT22;3541;53.230;10.518;2023-06-10T06:02:20;17.50;99.90
7002;DHT22;3541;53.230;10.518;2023-06-10T06:04:46;17.50;99.90
7002;DHT22;3541;53.230;10.518;2023-06-10T06:07:14;17.50;99.90
7002;DHT22;3541;53.230;10.518;2023-06-10T06:09:41;17.50;99.90
7002;DHT22;3541;53.230;10.518;2023-06-10T06:12:09;17.50;99.90
7002;DHT22;3541;53.230;10.518;2023-06-10T06:14:38;17.60;99.90
7002;DHT22;3541;53.230;10.518;2023-06-10T06:17:05;17.60;99.90
7002;DHT22;3541;53.230;10.518;2023-06-10T06:19:31;17.70;99.90
7002;DHT22;3541;53.230;10.518;2023-06-10T06:21:58;17.70;99.90
7002;DHT22;3541;53.230;10.518;2023-06-10T06:24:24;17.70;99.90
7002;DHT22;3541;53.230;10.518;2023-06-10T06:26:51;17.70;99.90
7002;DHT22;3541;53.230;10.518;2023-06-10T06:29:19;17.70;99.90
7002;DHT22;3541;53.230;10.518;2023-06-10T06:31:45;17.70;99.90
7002;DHT22;3541;53.230;10.518;2023-06-10T06:34:12;17.80;99.90
7002;DHT22;3541;53.230;10.518;2023-06-10T06:36:38;17.90;99.90
7002;DHT22;3541;53.230;10.518;2023-06-10T06:39:05;17.90;99.90
7002;DHT22;3541;53.230;10.518;2023-06-10T06:41:31;18.00;99.90
7002;DHT22;3541;53.230;10.518;2023-06-10T06:43:58;18.10;99.90
7002;DHT22;3541;53.230;10.518;2023-06-10T06:46:26;18.10;99.90
7002;DHT22;3541;53.230;10.518;2023-06-10T06:48:53;18.10;99.90
7002;DHT22;3541;53.230;10.518;2023-06-10T06:51:20;18.20;99.90
7002;DHT22;3541;53.230;10.518;2023-06-10T06:53:46;18.20;99.90
7002;DHT22;3541;53.230;10.518;2023-06-10T06:56:15;18.20;99.90
7002;DHT22;3541;53.230;10.518;2023-06-10T06:58:42;18.20;99.90
7002;DHT22;3541;53.230;10.518;2023-06-10T07:01:09;18.30;99.90
7002;DHT22;3541;53.230;10.518;2023-06-10T07:03:36;18.40;99.90
7002;DHT22;3541;53.230;10.518;2023-06-10T07:06:03;18.50;99.90
7002;DHT22;3541;53.230;10.518;2023-06-10T07:08:30;18.40;99.90
7002;DHT22;3541;53.230;10.518;2023-06-10T07:10:57;18.50;99.90
7002;DHT22;3541;53.230;10.518;2023-06-10T07:13:23;18.50;99.90
7002;DHT22;3541;53.230;10.518;2023-06-10T07:15:50;18.60;99.90
7002;DHT22;3541;53.230;10.518;2023-06-10T07:18:16;18.60;99.90
7002;DHT22;3541;53.230;10.518;2023-06-10T07:20:44;18.70;99.90
7002;DHT22;3541;53.230;10.518;2023-06-10T07:23:11;18.80;99.90
7002;DHT22;3541;53.230;10.518;2023-06-10T07:25:37;18.80;99.90
7002;DHT22;3541;53.230;10.518;2023-06-10T07:28:04;18.90;99.90
7002;DHT22;3541;53.230;10.518;2023-06-10T07:30:31;19.00;99.90
7002;DHT22;3541;53.230;10.518;2023-06-10T07:32:57;19.00;99.90
7002;DHT22;3541;53.230;10.518;2023-06-10T07:35:24;19.10;99.90
7002;DHT22;3541;53.230;10.518;2023-06-10T07:37:52;19.00;99.90
7002;DHT22;3541;53.230;10.518;2023-06-10T07:40:18;19.10;99.90
7002;DHT22;3541;53.230;10.518;2023-06-10T07:42:45;19.20;99.90
7002;DHT22;3541;53.230;10.518;2023-06-10T07:45:11;19.20;99.90
7002;DHT22;3541;53.230;10.518;2023-06-10T07:47:38;19.20;99.90
7002;DHT22;3541;53.230;10.518;2023-06-10T07:50:05;19.30;99.90
7002;DHT22;3541;53.230;10.518;2023-06-10T07:52:32;19.30;99.90
7002;DHT22;3541;53.230;10.518;2023-06-10T07:55:00;19.40;99.90
7002;DHT22;3541;53.230;10.518;2023-06-10T07:57:26;19.50;99.90
7002;DHT22;3541;53.230;10.518;2023-06-10T07:59:53;19.60;99.90
7002;DHT22;3541;53.230;10.518;2023-06-10T08:02:20;19.70;99.90
7002;DHT22;3541;53.230;10.518;2023-06-10T08:04:46;19.70;99.90
7002;DHT22;3541;53.230;10.518;2023-06-10T08:07:13;19.70;99.90
7002;DHT22;3541;53.230;10.518;2023-06-10T08:09:40;19.80;99.90
7002;DHT22;3541;53.230;10.518;2023-06-10T08:12:08;19.80;99.90
7002;DHT22;3541;53.230;10.518;2023-06-10T08:14:35;19.90;99.90
7002;DHT22;3541;53.230;10.518;2023-06-10T08:17:02;20.00;99.90
7002;DHT22;3541;53.230;10.518;2023-06-10T08:19:31;20.10;99.90
7002;DHT22;3541;53.230;10.518;2023-06-10T08:21:57;20.20;99.90
7002;DHT22;3541;53.230;10.518;2023-06-10T08:24:24;20.20;99.90
7002;DHT22;3541;53.230;10.518;2023-06-10T08:26:50;20.30;99.90
7002;DHT22;3541;53.230;10.518;2023-06-10T08:29:18;20.30;99.90
7002;DHT22;3541;53.230;10.518;2023-06-10T08:31:45;20.50;99.90
7002;DHT22;3541;53.230;10.518;2023-06-10T08:34:11;20.60;99.90
7002;DHT22;3541;53.230;10.518;2023-06-10T08:36:38;20.60;99.90
7002;DHT22;3541;53.230;10.518;2023-06-10T08:39:04;20.70;99.90
7002;DHT22;3541;53.230;10.518;2023-06-10T08:41:35;20.70;99.90
7002;DHT22;3541;53.230;10.518;2023-06-10T08:44:09;20.80;99.90
7002;DHT22;3541;53.230;10.518;2023-06-10T08:46:38;20.90;99.90
7002;DHT22;3541;53.230;10.518;2023-06-10T08:49:09;21.00;99.90
7002;DHT22;3541;53.230;10.518;2023-06-10T08:51:37;21.10;99.90
7002;DHT22;3541;53.230;10.518;2023-06-10T08:54:11;21.10;99.90
7002;DHT22;3541;53.230;10.518;2023-06-10T08:56:39;21.20;99.90
7002;DHT22;3541;53.230;10.518;2023-06-10T08:59:06;21.30;99.90
7002;DHT22;3541;53.230;10.518;2023-06-10T09:01:34;21.40;99.90
7002;DHT22;3541;53.230;10.518;2023-06-10T09:04:03;21.50;99.90
7002;DHT22;3541;53.230;10.518;2023-06-10T09:06:32;21.60;99.90
7002;DHT22;3541;53.230;10.518;2023-06-10T09:08:59;21.60;99.90
7002;DHT22;3541;53.230;10.518;2023-06-10T09:11:26;21.60;99.90
7002;DHT22;3541;53.230;10.518;2023-06-10T09:13:52;21.70;99.90
7002;DHT22;3541;53.230;10.518;2023-06-10T09:16:19;21.70;99.90
7002;DHT22;3541;53.230;10.518;2023-06-10T09:18:46;21.90;99.90
7002;DHT22;3541;53.230;10.518;2023-06-10T09:21:14;22.00;99.90
7002;DHT22;3541;53.230;10.518;2023-06-10T09:23:40;22.10;99.90
7002;DHT22;3541;53.230;10.518;2023-06-10T09:26:08;22.10;99.90
7002;DHT22;3541;53.230;10.518;2023-06-10T09:28:36;22.20;99.90
7002;DHT22;3541;53.230;10.518;2023-06-10T09:31:03;22.30;99.90
7002;DHT22;3541;53.230;10.518;2023-06-10T09:33:30;22.40;99.90
7002;DHT22;3541;53.230;10.518;2023-06-10T09:35:57;22.50;99.90
7002;DHT22;3541;53.230;10.518;2023-06-10T09:38:31;22.50;99.90
7002;DHT22;3541;53.230;10.518;2023-06-10T09:40:58;22.50;99.90
7002;DHT22;3541;53.230;10.518;2023-06-10T09:43:39;22.60;99.90
7002;DHT22;3541;53.230;10.518;2023-06-10T09:46:06;22.60;99.90
7002;DHT22;3541;53.230;10.518;2023-06-10T09:48:35;22.80;99.90
7002;DHT22;3541;53.230;10.518;2023-06-10T09:51:02;22.90;99.90
7002;DHT22;3541;53.230;10.518;2023-06-10T09:53:33;22.90;99.90
7002;DHT22;3541;53.230;10.518;2023-06-10T09:55:59;23.00;99.90
7002;DHT22;3541;53.230;10.518;2023-06-10T09:58:34;23.10;99.90
7002;DHT22;3541;53.230;10.518;2023-06-10T10:01:04;23.20;99.90
7002;DHT22;3541;53.230;10.518;2023-06-10T10:03:31;23.20;99.90
7002;DHT22;3541;53.230;10.518;2023-06-10T10:05:58;23.30;99.90
7002;DHT22;3541;53.230;10.518;2023-06-10T10:08:25;23.40;99.90
7002;DHT22;3541;53.230;10.518;2023-06-10T10:10:55;23.40;99.90
7002;DHT22;3541;53.230;10.518;2023-06-10T10:13:23;23.50;99.90
7002;DHT22;3541;53.230;10.518;2023-06-10T10:15:50;23.60;99.90
7002;DHT22;3541;53.230;10.518;2023-06-10T10:18:18;23.70;99.90
7002;DHT22;3541;53.230;10.518;2023-06-10T10:20:50;23.80;99.90
7002;DHT22;3541;53.230;10.518;2023-06-10T10:23:23;23.80;99.90
7002;DHT22;3541;53.230;10.518;2023-06-10T10:25:52;23.90;99.90
7002;DHT22;3541;53.230;10.518;2023-06-10T10:28:24;24.00;99.90
7002;DHT22;3541;53.230;10.518;2023-06-10T10:30:54;24.10;99.90
7002;DHT22;3541;53.230;10.518;2023-06-10T10:33:31;24.20;99.90
7002;DHT22;3541;53.230;10.518;2023-06-10T10:36:00;24.30;99.90
7002;DHT22;3541;53.230;10.518;2023-06-10T10:38:28;24.40;99.90
7002;DHT22;3541;53.230;10.518;2023-06-10T10:40:55;24.40;99.90
7002;DHT22;3541;53.230;10.518;2023-06-10T10:43:26;24.40;99.90
7002;DHT22;3541;53.230;10.518;2023-06-10T10:45:58;24.40;99.90
7002;DHT22;3541;53.230;10.518;2023-06-10T10:48:26;24.60;99.90
7002;DHT22;3541;53.230;10.518;2023-06-10T10:50:56;24.70;99.90
7002;DHT22;3541;53.230;10.518;2023-06-10T10:53:24;24.80;99.90
7002;DHT22;3541;53.230;10.518;2023-06-10T10:55:58;25.00;99.90
7002;DHT22;3541;53.230;10.518;2023-06-10T10:58:27;25.10;99.90
7002;DHT22;3541;53.230;10.518;2023-06-10T11:00:53;25.10;99.90
7002;DHT22;3541;53.230;10.518;2023-06-10T11:03:20;25.10;99.90
7002;DHT22;3541;53.230;10.518;2023-06-10T11:05:48;25.20;99.90
7002;DHT22;3541;53.230;10.518;2023-06-10T11:08:45;25.30;99.90
7002;DHT22;3541;53.230;10.518;2023-06-10T11:11:18;25.30;99.90
7002;DHT22;3541;53.230;10.518;2023-06-10T11:13:59;25.50;99.90
7002;DHT22;3541;53.230;10.518;2023-06-10T11:16:27;25.40;99.90
7002;DHT22;3541;53.230;10.518;2023-06-10T11:18:55;25.50;99.90
7002;DHT22;3541;53.230;10.518;2023-06-10T11:21:23;25.60;99.90
7002;DHT22;3541;53.230;10.518;2023-06-10T11:23:50;25.70;99.90
7002;DHT22;3541;53.230;10.518;2023-06-10T11:26:19;25.80;99.90
7002;DHT22;3541;53.230;10.518;2023-06-10T11:29:07;25.80;99.90
7002;DHT22;3541;53.230;10.518;2023-06-10T11:31:39;25.80;99.90
7002;DHT22;3541;53.230;10.518;2023-06-10T11:34:07;25.90;99.90
7002;DHT22;3541;53.230;10.518;2023-06-10T11:36:36;26.10;99.90
7002;DHT22;3541;53.230;10.518;2023-06-10T11:39:06;26.20;99.90
7002;DHT22;3541;53.230;10.518;2023-06-10T11:41:34;26.30;99.90
7002;DHT22;3541;53.230;10.518;2023-06-10T11:44:02;26.40;99.90
7002;DHT22;3541;53.230;10.518;2023-06-10T11:46:30;26.50;99.90
7002;DHT22;3541;53.230;10.518;2023-06-10T11:48:58;26.60;99.90
7002;DHT22;3541;53.230;10.518;2023-06-10T11:51:26;26.70;99.90
7002;DHT22;3541;53.230;10.518;2023-06-10T11:53:53;26.70;99.90
7002;DHT22;3541;53.230;10.518;2023-06-10T11:56:20;26.80;99.90
7002;DHT22;3541;53.230;10.518;2023-06-10T11:58:52;26.80;99.90
7002;DHT22;3541;53.230;10.518;2023-06-10T12:01:20;26.90;99.90
7002;DHT22;3541;53.230;10.518;2023-06-10T12:03:56;26.90;99.90
7002;DHT22;3541;53.230;10.518;2023-06-10T12:06:23;27.00;99.90
7002;DHT22;3541;53.230;10.518;2023-06-10T12:08:50;27.00;99.90
7002;DHT22;3541;53.230;10.518;2023-06-10T12:11:16;27.10;99.90
7002;DHT22;3541;53.230;10.518;2023-06-10T12:13:46;27.20;99.90
7002;DHT22;3541;53.230;10.518;2023-06-10T12:16:15;27.30;99.90
7002;DHT22;3541;53.230;10.518;2023-06-10T12:18:43;27.30;99.90
7002;DHT22;3541;53.230;10.518;2023-06-10T12:21:19;27.40;99.90
7002;DHT22;3541;53.230;10.518;2023-06-10T12:24:03;27.40;99.90
7002;DHT22;3541;53.230;10.518;2023-06-10T12:26:38;27.40;99.90
7002;DHT22;3541;53.230;10.518;2023-06-10T12:29:21;27.60;99.90
7002;DHT22;3541;53.230;10.518;2023-06-10T12:31:54;27.60;99.90
7002;DHT22;3541;53.230;10.518;2023-06-10T12:34:31;27.70;99.90
7002;DHT22;3541;53.230;10.518;2023-06-10T12:36:59;27.70;99.90
7002;DHT22;3541;53.230;10.518;2023-06-10T12:39:25;27.80;99.90
7002;DHT22;3541;53.230;10.518;2023-06-10T12:41:52;27.90;99.90
7002;DHT22;3541;53.230;10.518;2023-06-10T12:44:28;27.90;99.90
7002;DHT22;3541;53.230;10.518;2023-06-10T12:46:55;28.00;99.90
7002;DHT22;3541;53.230;10.518;2023-06-10T12:49:21;28.10;99.90
7002;DHT22;3541;53.230;10.518;2023-06-10T12:51:48;28.20;99.90
7002;DHT22;3541;53.230;10.518;2023-06-10T12:54:16;28.20;99.90
7002;DHT22;3541;53.230;10.518;2023-06-10T12:56:43;28.30;99.90
7002;DHT22;3541;53.230;10.518;2023-06-10T12:59:09;28.40;99.90
7002;DHT22;3541;53.230;10.518;2023-06-10T13:01:37;28.40;99.90
7002;DHT22;3541;53.230;10.518;2023-06-10T13:04:04;28.50;99.90
7002;DHT22;3541;53.230;10.518;2023-06-10T13:06:31;28.50;99.90
7002;DHT22;3541;53.230;10.518;2023-06-10T13:09:01;28.60;99.90
7002;DHT22;3541;53.230;10.518;2023-06-10T13:11:29;28.60;99.90
7002;DHT22;3541;53.230;10.518;2023-06-10T13:13:56;28.70;99.90
7002;DHT22;3541;53.230;10.518;2023-06-10T13:16:22;28.80;99.90
7002;DHT22;3541;53.230;10.518;2023-06-10T13:18:49;29.00;99.90
7002;DHT22;3541;53.230;10.518;2023-06-10T13:21:15;29.00;99.90
7002;DHT22;3541;53.230;10.518;2023-06-10T13:23:44;29.00;99.90
7002;DHT22;3541;53.230;10.518;2023-06-10T13:26:11;29.10;99.90
7002;DHT22;3541;53.230;10.518;2023-06-10T13:28:39;29.20;99.90
7002;DHT22;3541;53.230;10.518;2023-06-10T13:31:05;29.30;99.90
7002;DHT22;3541;53.230;10.518;2023-06-10T13:33:32;29.30;99.90
7002;DHT22;3541;53.230;10.518;2023-06-10T13:35:59;29.20;99.90
7002;DHT22;3541;53.230;10.518;2023-06-10T13:38:25;29.30;99.90
7002;DHT22;3541;53.230;10.518;2023-06-10T13:40:52;29.50;99.90
7002;DHT22;3541;53.230;10.518;2023-06-10T13:43:19;29.70;99.90
7002;DHT22;3541;53.230;10.518;2023-06-10T13:45:46;29.70;99.90
7002;DHT22;3541;53.230;10.518;2023-06-10T13:48:13;29.90;99.90
7002;DHT22;3541;53.230;10.518;2023-06-10T13:50:40;30.00;99.90
7002;DHT22;3541;53.230;10.518;2023-06-10T13:53:10;30.10;99.90
7002;DHT22;3541;53.230;10.518;2023-06-10T13:55:37;30.20;99.90
7002;DHT22;3541;53.230;10.518;2023-06-10T13:58:03;30.30;99.90
7002;DHT22;3541;53.230;10.518;2023-06-10T14:00:30;30.30;99.90
7002;DHT22;3541;53.230;10.518;2023-06-10T14:02:58;30.40;99.90
7002;DHT22;3541;53.230;10.518;2023-06-10T14:05:25;30.30;99.90
7002;DHT22;3541;53.230;10.518;2023-06-10T14:07:51;30.00;99.90
7002;DHT22;3541;53.230;10.518;2023-06-10T14:10:18;29.60;99.90
7002;DHT22;3541;53.230;10.518;2023-06-10T14:12:44;29.30;99.90
7002;DHT22;3541;53.230;10.518;2023-06-10T14:15:11;29.40;99.90
7002;DHT22;3541;53.230;10.518;2023-06-10T14:17:38;29.70;99.90
7002;DHT22;3541;53.230;10.518;2023-06-10T14:20:07;30.00;99.90
7002;DHT22;3541;53.230;10.518;2023-06-10T14:22:34;30.20;99.90
7002;DHT22;3541;53.230;10.518;2023-06-10T14:25:00;30.50;99.90
7002;DHT22;3541;53.230;10.518;2023-06-10T14:27:27;30.70;99.90
7002;DHT22;3541;53.230;10.518;2023-06-10T14:29:53;30.40;99.90
7002;DHT22;3541;53.230;10.518;2023-06-10T14:32:20;30.30;99.90
7002;DHT22;3541;53.230;10.518;2023-06-10T14:34:46;30.50;99.90
7002;DHT22;3541;53.230;10.518;2023-06-10T14:37:14;30.70;99.10
7002;DHT22;3541;53.230;10.518;2023-06-10T14:39:41;30.90;99.20
7002;DHT22;3541;53.230;10.518;2023-06-10T14:42:07;31.00;99.80
7002;DHT22;3541;53.230;10.518;2023-06-10T14:44:34;31.20;99.90
7002;DHT22;3541;53.230;10.518;2023-06-10T14:47:00;31.10;99.90
7002;DHT22;3541;53.230;10.518;2023-06-10T14:49:28;30.80;99.90
7002;DHT22;3541;53.230;10.518;2023-06-10T14:51:54;30.60;99.90
7002;DHT22;3541;53.230;10.518;2023-06-10T14:54:22;30.80;99.90
7002;DHT22;3541;53.230;10.518;2023-06-10T14:56:48;31.00;99.10
7002;DHT22;3541;53.230;10.518;2023-06-10T14:59:15;31.00;99.00
7002;DHT22;3541;53.230;10.518;2023-06-10T15:01:42;30.70;99.10
7002;DHT22;3541;53.230;10.518;2023-06-10T15:04:08;30.40;99.40
7002;DHT22;3541;53.230;10.518;2023-06-10T15:06:35;30.10;98.70
7002;DHT22;3541;53.230;10.518;2023-06-10T15:09:02;30.40;98.30
7002;DHT22;3541;53.230;10.518;2023-06-10T15:11:30;30.80;98.70
7002;DHT22;3541;53.230;10.518;2023-06-10T15:13:56;31.10;97.40
7002;DHT22;3541;53.230;10.518;2023-06-10T15:16:23;31.30;97.40
7002;DHT22;3541;53.230;10.518;2023-06-10T15:18:49;31.40;96.80
7002;DHT22;3541;53.230;10.518;2023-06-10T15:21:16;31.60;96.50
7002;DHT22;3541;53.230;10.518;2023-06-10T15:23:42;31.60;96.40
7002;DHT22;3541;53.230;10.518;2023-06-10T15:26:09;31.80;97.00
7002;DHT22;3541;53.230;10.518;2023-06-10T15:28:37;31.90;96.80
7002;DHT22;3541;53.230;10.518;2023-06-10T15:31:04;32.00;96.20
7002;DHT22;3541;53.230;10.518;2023-06-10T15:33:30;32.00;95.60
7002;DHT22;3541;53.230;10.518;2023-06-10T15:35:57;32.20;95.60
7002;DHT22;3541;53.230;10.518;2023-06-10T15:38:23;32.20;95.80
7002;DHT22;3541;53.230;10.518;2023-06-10T15:40:50;32.20;95.40
7002;DHT22;3541;53.230;10.518;2023-06-10T15:43:16;32.20;94.90
7002;DHT22;3541;53.230;10.518;2023-06-10T15:45:44;32.00;95.00
7002;DHT22;3541;53.230;10.518;2023-06-10T15:48:11;31.90;94.50